CHIUDI BANNER

Seguici su twitter Seguici su facebook
LIVE Streaming HD
Get Adobe Flash player
Dati meteo stazione (refresh automatico ogni minuto)
Latina(LT) VENTO: VELOCITÀ   PIOGGIA: QTA GIORNO TEMPERATURA: ATTUALE
SPOT: Latina lido
(Hotel Tirreno) Posizione su Googlemap: Latitudine 41.41 Longitudine 12.84
RAFFICA MASSIMA: QTA MENSILE: MASSIMA:
VELOCITÀ MEDIA: QTA ANNUALE: MINIMA:
DIREZIONE: UMIDITÀ: WIND CHILL:
TIPO: DEW POINT:
BEAUFORT: PRESSIONE:
I nostri partner
Latina(LT) nelle ultime ore
Applica filtri in visualizzazione Intervallo delle letture nelle ultime

Ora Direzione Vento Velocita' Vento Media Vento Raffica Max. Temperatura Wind Chill Pioggia Pressione
23:40:5146 °(NE)3 Kts3 Kts11.6 Kts12.5 °C9.1 °C0 mm1021.7 Hpa
23:36:1040 °(NE)2.1 Kts3 Kts11.6 Kts12.4 °C9 °C0 mm1021.7 Hpa
23:31:2539 °(NE)1.2 Kts3 Kts11.6 Kts12.4 °C9 °C0 mm1021.7 Hpa
23:26:0439 °(NE)2.1 Kts3 Kts11.6 Kts12.4 °C9 °C0 mm1021.7 Hpa
23:21:2740 °(NE)3 Kts3 Kts11.6 Kts12.5 °C9.1 °C0 mm1021.7 Hpa
23:16:1140 °(NE)3 Kts3 Kts11.6 Kts12.4 °C9 °C0 mm1021.7 Hpa
23:11:3040 °(NE)3 Kts3 Kts11.6 Kts12.5 °C9.1 °C0 mm1021.7 Hpa
23:06:1743 °(NE)3 Kts3 Kts11.6 Kts12.4 °C9 °C0 mm1021.7 Hpa
23:01:2337 °(NE)3 Kts3 Kts11.6 Kts12.4 °C9 °C0 mm1021.5 Hpa
22:56:0939 °(NE)2.1 Kts3 Kts11.6 Kts12.4 °C9 °C0 mm1021.5 Hpa
22:51:3038 °(NE)2.1 Kts3 Kts11.6 Kts12.4 °C9 °C0 mm1021.5 Hpa
22:46:2143 °(NE)2.1 Kts3 Kts11.6 Kts12.4 °C9 °C0 mm1021.7 Hpa
22:41:0236 °(NE)3 Kts3 Kts11.6 Kts12.4 °C9 °C0 mm1021.5 Hpa
22:35:5636 °(NE)3.8 Kts2.1 Kts11.6 Kts12.5 °C9.9 °C0 mm1021.5 Hpa
22:31:1734 °(NE)2.1 Kts1.2 Kts11.6 Kts12.7 °C10.8 °C0 mm1021.5 Hpa
22:26:0834 °(NE)2.1 Kts0.3 Kts11.6 Kts12.9 °C11.8 °C0 mm1021.5 Hpa
22:21:2948 °(NE)1.2 Kts0.3 Kts11.6 Kts13.1 °C12 °C0 mm1021.5 Hpa
22:16:1453 °(NE)0 Kts1.2 Kts11.6 Kts13.2 °C11.3 °C0 mm1021.5 Hpa
22:11:1352 °(NE)1.2 Kts1.2 Kts11.6 Kts13.2 °C11.3 °C0 mm1021.6 Hpa
22:06:3252 °(NE)3 Kts1.2 Kts11.6 Kts13.2 °C11.3 °C0 mm1021.6 Hpa
22:01:0456 °(NE)2.1 Kts1.2 Kts11.6 Kts13.2 °C11.3 °C0 mm1021.5 Hpa
21:56:1253 °(NE)0.3 Kts1.2 Kts11.6 Kts13.2 °C11.3 °C0 mm1021.5 Hpa
21:51:2753 °(NE)2.1 Kts1.2 Kts11.6 Kts13.1 °C11.3 °C0 mm1021.5 Hpa
21:46:1053 °(NE)1.2 Kts1.2 Kts11.6 Kts12.9 °C11.1 °C0 mm1021.4 Hpa